createdAt,value
2019-04-25T00:02:32.493Z,50.76
2019-04-25T00:05:04.685Z,50.79
2019-04-25T00:07:37.080Z,50.98
2019-04-25T00:10:08.719Z,51.17
2019-04-25T00:12:39.615Z,51.26
2019-04-25T00:15:11.181Z,51.49
2019-04-25T00:17:44.405Z,51.60
2019-04-25T00:20:16.307Z,51.55
2019-04-25T00:23:04.203Z,51.41
2019-04-25T00:25:53.159Z,51.48
2019-04-25T00:28:24.121Z,52.00
2019-04-25T00:30:55.115Z,51.83
2019-04-25T00:33:26.005Z,51.82
2019-04-25T00:35:57.914Z,51.91
2019-04-25T00:38:28.805Z,52.09
2019-04-25T00:40:59.721Z,51.93
2019-04-25T00:43:31.458Z,52.07
2019-04-25T00:46:02.593Z,52.08
2019-04-25T00:48:33.553Z,52.43
2019-04-25T00:51:05.400Z,52.49
2019-04-25T00:53:36.293Z,52.82
2019-04-25T00:56:07.212Z,52.88
2019-04-25T00:58:48.910Z,52.93
2019-04-25T01:01:31.688Z,52.95
2019-04-25T01:04:02.791Z,52.83
2019-04-25T01:06:33.761Z,52.86
2019-04-25T01:09:08.690Z,53.19
2019-04-25T01:11:40.373Z,53.68
2019-04-25T01:14:11.954Z,53.47
2019-04-25T01:16:42.968Z,53.60
2019-04-25T01:19:13.863Z,53.74
2019-04-25T01:21:45.547Z,54.07
2019-04-25T01:24:16.989Z,54.30
2019-04-25T01:26:47.911Z,54.26
2019-04-25T01:29:18.799Z,54.29
2019-04-25T01:31:50.091Z,54.18
2019-04-25T01:34:23.815Z,54.19
2019-04-25T01:37:14.111Z,54.44
2019-04-25T01:39:49.721Z,54.42
2019-04-25T01:42:28.469Z,54.58
2019-04-25T01:44:59.442Z,54.68
2019-04-25T01:47:30.431Z,55.18
2019-04-25T01:50:01.398Z,56.29
2019-04-25T01:52:33.478Z,57.17
2019-04-25T01:55:07.487Z,56.84
2019-04-25T01:57:38.399Z,57.69
2019-04-25T02:00:11.138Z,57.96
2019-04-25T02:02:43.518Z,58.38
2019-04-25T02:05:14.552Z,58.72
2019-04-25T02:07:45.572Z,58.56
2019-04-25T02:10:16.747Z,58.51
2019-04-25T02:12:58.279Z,58.99
2019-04-25T02:15:30.742Z,58.72
2019-04-25T02:18:03.640Z,58.68
2019-04-25T02:20:34.429Z,58.47
2019-04-25T02:23:06.452Z,58.19
2019-04-25T02:25:37.349Z,58.30
2019-04-25T02:28:08.278Z,58.63
2019-04-25T02:30:39.248Z,58.58
2019-04-25T02:33:10.177Z,58.59
2019-04-25T02:35:44.020Z,58.77
2019-04-25T02:38:14.643Z,58.65
2019-04-25T02:40:46.332Z,58.78
2019-04-25T02:43:17.246Z,59.14
2019-04-25T02:46:08.241Z,58.97
2019-04-25T02:48:59.565Z,58.97
2019-04-25T02:51:31.332Z,58.90
2019-04-25T02:54:07.531Z,59.14
2019-04-25T02:56:38.797Z,59.24
2019-04-25T02:59:09.486Z,59.35
2019-04-25T03:01:40.507Z,59.39
2019-04-25T03:04:11.616Z,59.30
2019-04-25T03:06:44.882Z,59.55
2019-04-25T03:09:15.662Z,59.19
2019-04-25T03:11:47.728Z,58.79
2019-04-25T03:14:18.854Z,58.84
2019-04-25T03:16:49.834Z,58.89
2019-04-25T03:19:34.050Z,58.89
2019-04-25T03:22:10.085Z,58.95
2019-04-25T03:24:41.060Z,59.23
2019-04-25T03:27:11.961Z,59.36
2019-04-25T03:29:44.220Z,59.66
2019-04-25T03:32:19.563Z,60.01
2019-04-25T03:34:48.178Z,60.36
2019-04-25T03:37:19.076Z,61.04
2019-04-25T03:39:50.202Z,60.94
2019-04-25T03:42:21.110Z,60.66
2019-04-25T03:44:53.693Z,60.50
2019-04-25T03:47:24.734Z,60.58
2019-04-25T03:49:55.672Z,61.20
2019-04-25T03:52:26.567Z,61.08
2019-04-25T03:54:57.506Z,61.02
2019-04-25T03:57:28.407Z,61.71
2019-04-25T03:59:59.335Z,61.92
2019-04-25T04:02:30.239Z,61.68
2019-04-25T04:05:01.170Z,61.61
2019-04-25T04:07:33.620Z,62.68
2019-04-25T04:10:07.988Z,62.78
2019-04-25T04:12:38.875Z,62.48
2019-04-25T04:15:10.422Z,62.51
2019-04-25T04:17:59.091Z,62.24
2019-04-25T04:20:34.650Z,62.50
2019-04-25T04:23:23.120Z,62.39
2019-04-25T04:25:55.226Z,62.18
2019-04-25T04:28:26.116Z,62.84
2019-04-25T04:30:57.056Z,62.71
2019-04-25T04:33:32.376Z,62.60
2019-04-25T04:36:03.767Z,62.89
2019-04-25T04:38:34.985Z,62.88
2019-04-25T04:41:05.955Z,62.01
2019-04-25T04:43:36.845Z,61.49
2019-04-25T04:46:08.646Z,61.20
2019-04-25T04:48:39.581Z,60.89
2019-04-25T04:51:10.616Z,60.68
2019-04-25T04:53:41.495Z,60.47
2019-04-25T04:56:15.086Z,59.65
2019-04-25T04:58:46.669Z,59.21
2019-04-25T05:01:19.261Z,58.34
2019-04-25T05:03:54.505Z,57.54
2019-04-25T05:06:27.084Z,56.78
2019-04-25T05:08:59.638Z,56.07
2019-04-25T05:11:31.384Z,55.66
2019-04-25T05:14:04.031Z,55.00
2019-04-25T05:16:35.010Z,54.46
2019-04-25T05:19:05.944Z,53.49
2019-04-25T05:21:36.907Z,53.16
2019-04-25T05:24:07.808Z,53.18
2019-04-25T05:26:39.591Z,52.81
2019-04-25T05:29:10.352Z,52.49
2019-04-25T05:31:45.896Z,52.90
2019-04-25T05:34:18.139Z,52.71
2019-04-25T05:36:49.215Z,52.58
2019-04-25T05:39:20.404Z,52.26
2019-04-25T05:42:07.607Z,51.82
2019-04-25T05:44:37.833Z,51.57
2019-04-25T05:47:08.765Z,50.60
2019-04-25T05:49:39.663Z,49.90
2019-04-25T05:52:10.606Z,49.40
2019-04-25T05:54:41.525Z,49.01
2019-04-25T05:57:13.765Z,48.29
2019-04-25T05:59:45.532Z,46.64
2019-04-25T06:02:17.842Z,46.61
2019-04-25T06:04:48.760Z,46.34
2019-04-25T06:07:19.690Z,45.72
2019-04-25T06:10:04.168Z,44.99
2019-04-25T06:12:37.567Z,44.85
2019-04-25T06:15:08.748Z,44.62
2019-04-25T06:17:41.330Z,44.19
2019-04-25T06:20:14.203Z,43.57
2019-04-25T06:22:49.751Z,41.68
2019-04-25T06:25:24.528Z,42.34
2019-04-25T06:28:15.884Z,42.42
2019-04-25T06:30:46.882Z,41.63
2019-04-25T06:33:17.838Z,41.42
2019-04-25T06:35:48.724Z,41.66
2019-04-25T06:38:20.524Z,41.55
2019-04-25T06:40:53.592Z,41.08
2019-04-25T06:43:25.880Z,40.64
2019-04-25T06:46:10.937Z,40.37
2019-04-25T06:48:49.322Z,40.56
2019-04-25T06:51:22.412Z,40.68
2019-04-25T06:53:53.527Z,41.05
2019-04-25T06:56:25.248Z,40.74
2019-04-25T06:58:57.093Z,39.98
2019-04-25T07:01:28.967Z,39.99
2019-04-25T07:03:59.890Z,40.39
2019-04-25T07:06:31.331Z,40.87
2019-04-25T07:09:03.092Z,40.97
2019-04-25T07:11:34.866Z,40.74
2019-04-25T07:14:07.757Z,40.29
2019-04-25T07:16:38.666Z,39.83
2019-04-25T07:19:09.778Z,39.74
2019-04-25T07:21:40.680Z,40.14
2019-04-25T07:24:11.626Z,39.98
2019-04-25T07:27:03.641Z,39.85
2019-04-25T07:29:37.266Z,39.80
2019-04-25T07:32:15.664Z,40.64
2019-04-25T07:34:46.682Z,41.08
2019-04-25T07:37:17.581Z,41.10
2019-04-25T07:39:48.519Z,41.15
2019-04-25T07:42:19.447Z,40.84
2019-04-25T07:44:52.994Z,40.08
2019-04-25T07:47:24.229Z,40.37
2019-04-25T07:49:55.361Z,41.01
2019-04-25T07:52:27.192Z,40.80
2019-04-25T07:54:58.139Z,40.32
2019-04-25T07:57:29.177Z,39.96
2019-04-25T08:00:00.134Z,39.67
2019-04-25T08:02:31.888Z,39.45
2019-04-25T08:05:05.912Z,39.41
2019-04-25T08:07:36.822Z,39.35
2019-04-25T08:10:09.942Z,39.25
2019-04-25T08:12:41.395Z,39.23
2019-04-25T08:15:17.651Z,39.13
2019-04-25T08:17:56.226Z,39.29
2019-04-25T08:20:29.110Z,39.64
2019-04-25T08:23:01.988Z,40.38
2019-04-25T08:25:33.443Z,41.37
2019-04-25T08:28:05.537Z,41.15
2019-04-25T08:30:38.305Z,40.83
2019-04-25T08:33:09.212Z,40.65
2019-04-25T08:35:40.155Z,40.17
2019-04-25T08:38:13.484Z,39.97
2019-04-25T08:40:44.509Z,39.99
2019-04-25T08:43:15.411Z,40.28
2019-04-25T08:45:47.314Z,40.65
2019-04-25T08:48:18.288Z,40.27
2019-04-25T08:50:56.668Z,41.69
2019-04-25T08:53:29.222Z,40.50
2019-04-25T08:56:03.730Z,40.56
2019-04-25T08:59:03.306Z,40.50
2019-04-25T09:01:37.895Z,41.03
2019-04-25T09:04:13.343Z,41.23
2019-04-25T09:06:44.375Z,41.07
2019-04-25T09:09:15.252Z,41.00
2019-04-25T09:11:47.041Z,40.80
2019-04-25T09:14:18.049Z,40.13
2019-04-25T09:16:49.883Z,40.09
2019-04-25T09:19:20.781Z,40.07
2019-04-25T09:21:53.306Z,39.96
2019-04-25T09:24:24.661Z,39.68
2019-04-25T09:26:55.598Z,39.96
2019-04-25T09:29:26.500Z,40.08
2019-04-25T09:31:57.481Z,40.78
2019-04-25T09:34:28.393Z,40.81
2019-04-25T09:36:59.338Z,40.88
2019-04-25T09:39:44.364Z,41.17
2019-04-25T09:42:16.186Z,41.28
2019-04-25T09:44:54.483Z,41.02
2019-04-25T09:47:25.600Z,40.92
2019-04-25T09:49:57.467Z,40.49
2019-04-25T09:52:35.997Z,40.91
2019-04-25T09:55:11.315Z,40.31
2019-04-25T09:57:49.988Z,40.16
2019-04-25T10:00:33.422Z,40.37
2019-04-25T10:03:06.081Z,40.08
2019-04-25T10:05:37.160Z,39.79
2019-04-25T10:08:08.975Z,39.35
2019-04-25T10:10:40.496Z,39.21
2019-04-25T10:13:11.553Z,39.23
2019-04-25T10:15:54.641Z,38.69
2019-04-25T10:18:26.663Z,38.88
2019-04-25T10:20:57.716Z,38.74
2019-04-25T10:23:28.752Z,38.26
2019-04-25T10:25:59.651Z,38.11
2019-04-25T10:28:30.496Z,38.07
2019-04-25T10:31:01.467Z,38.01
2019-04-25T10:33:33.224Z,37.98
2019-04-25T10:36:05.589Z,37.34
2019-04-25T10:38:36.571Z,37.45
2019-04-25T10:41:08.063Z,37.39
2019-04-25T10:43:39.510Z,37.29
2019-04-25T10:46:11.341Z,37.00
2019-04-25T10:48:44.193Z,37.21
2019-04-25T10:51:15.078Z,37.31
2019-04-25T10:53:47.028Z,37.41
2019-04-25T10:56:18.341Z,37.03
2019-04-25T10:58:49.279Z,37.21
2019-04-25T11:01:20.182Z,37.22
2019-04-25T11:04:02.413Z,36.75
2019-04-25T11:06:33.720Z,37.14
2019-04-25T11:09:08.519Z,36.67
2019-04-25T11:11:39.424Z,36.92
2019-04-25T11:14:11.365Z,37.15
2019-04-25T11:16:45.222Z,37.09
2019-04-25T11:19:15.924Z,37.27
2019-04-25T11:21:47.690Z,36.87
2019-04-25T11:24:18.882Z,36.99
2019-04-25T11:26:51.317Z,37.01
2019-04-25T11:29:24.199Z,36.89
2019-04-25T11:31:55.181Z,36.14
2019-04-25T11:34:27.416Z,35.81
2019-04-25T11:36:58.309Z,35.65
2019-04-25T11:39:30.874Z,35.59
2019-04-25T11:42:01.778Z,34.53
2019-04-25T11:44:33.277Z,34.23
2019-04-25T11:47:07.128Z,34.16
2019-04-25T11:49:38.878Z,33.97
2019-04-25T11:52:10.545Z,33.91
2019-04-25T11:54:41.540Z,33.79
2019-04-25T11:57:13.869Z,33.67
2019-04-25T11:59:47.947Z,33.66
2019-04-25T12:02:21.526Z,33.90
2019-04-25T12:04:54.902Z,33.63
2019-04-25T12:07:26.294Z,33.96
2019-04-25T12:09:57.217Z,33.64
2019-04-25T12:12:28.144Z,33.39
2019-04-25T12:14:59.034Z,33.51
2019-04-25T12:17:29.929Z,33.54
2019-04-25T12:20:03.733Z,33.62
2019-04-25T12:22:34.754Z,32.73
2019-04-25T12:25:07.581Z,33.97
2019-04-25T12:27:38.487Z,35.61
2019-04-25T12:30:09.882Z,37.14
2019-04-25T12:32:45.730Z,37.97
2019-04-25T12:35:17.154Z,39.21
2019-04-25T12:37:48.177Z,40.34
2019-04-25T12:40:19.135Z,40.42
2019-04-25T12:42:50.045Z,41.45
2019-04-25T12:45:24.071Z,41.38
2019-04-25T12:47:59.196Z,41.54
2019-04-25T12:50:29.417Z,42.13
2019-04-25T12:53:00.320Z,42.37
2019-04-25T12:55:31.259Z,42.00
2019-04-25T12:58:03.515Z,41.68
2019-04-25T13:00:47.274Z,41.34
2019-04-25T13:03:07.204Z,41.54
2019-04-25T13:05:39.835Z,41.83
2019-04-25T13:08:11.507Z,41.56
2019-04-25T13:10:44.301Z,41.91
2019-04-25T13:13:16.397Z,41.90
2019-04-25T13:15:47.789Z,41.85
2019-04-25T13:18:18.690Z,41.56
2019-04-25T13:20:50.488Z,41.74
2019-04-25T13:23:21.466Z,41.78
2019-04-25T13:25:54.023Z,41.09
2019-04-25T13:28:44.132Z,41.39
2019-04-25T13:31:33.247Z,41.39
2019-04-25T13:34:09.671Z,41.08
2019-04-25T13:36:41.577Z,41.25
2019-04-25T13:39:15.098Z,41.53
2019-04-25T13:41:46.734Z,41.61
2019-04-25T13:44:17.638Z,41.66
2019-04-25T13:46:48.628Z,41.92
2019-04-25T13:49:20.352Z,42.09
2019-04-25T13:51:52.332Z,41.88
2019-04-25T13:54:24.050Z,41.95
2019-04-25T13:56:55.928Z,42.18
2019-04-25T13:59:26.846Z,42.60
2019-04-25T14:01:58.447Z,42.74
2019-04-25T14:04:29.818Z,42.92
2019-04-25T14:07:00.754Z,42.14
2019-04-25T14:09:34.566Z,42.24
2019-04-25T14:12:05.784Z,42.47
2019-04-25T14:14:36.684Z,42.33
2019-04-25T14:17:09.267Z,42.63
2019-04-25T14:19:47.603Z,42.57
2019-04-25T14:22:19.468Z,42.75
2019-04-25T14:24:50.368Z,43.03
2019-04-25T14:27:22.284Z,42.98
2019-04-25T14:29:53.946Z,42.83
2019-04-25T14:32:28.371Z,42.91
2019-04-25T14:34:57.548Z,42.75
2019-04-25T14:37:33.585Z,42.59
2019-04-25T14:40:03.928Z,42.55
2019-04-25T14:42:34.855Z,42.41
2019-04-25T14:45:09.575Z,42.25
2019-04-25T14:47:40.499Z,42.23
2019-04-25T14:50:11.517Z,42.69
2019-04-25T14:52:43.247Z,42.76
2019-04-25T14:55:16.387Z,42.79
2019-04-25T14:57:47.485Z,42.64
2019-04-25T15:00:23.951Z,42.42
2019-04-25T15:02:55.027Z,42.24
2019-04-25T15:05:25.926Z,42.24
2019-04-25T15:07:56.870Z,42.03
2019-04-25T15:10:29.497Z,41.84
2019-04-25T15:13:00.514Z,41.69
2019-04-25T15:15:31.643Z,41.73
2019-04-25T15:18:02.511Z,41.67
2019-04-25T15:20:34.359Z,41.66
2019-04-25T15:23:06.355Z,41.59
2019-04-25T15:25:37.624Z,41.59
2019-04-25T15:28:08.618Z,41.49
2019-04-25T15:30:40.287Z,41.56
2019-04-25T15:33:11.877Z,41.51
2019-04-25T15:35:45.052Z,41.48
2019-04-25T15:38:35.593Z,41.63
2019-04-25T15:41:11.188Z,41.57
2019-04-25T15:43:43.966Z,41.47
2019-04-25T15:46:19.233Z,41.44
2019-04-25T15:48:50.233Z,41.60
2019-04-25T15:51:21.163Z,41.97
2019-04-25T15:53:52.944Z,42.01
2019-04-25T15:56:23.852Z,42.33
2019-04-25T15:58:54.784Z,42.43
2019-04-25T16:01:26.495Z,42.56
2019-04-25T16:03:58.347Z,42.82
2019-04-25T16:06:29.882Z,43.02
2019-04-25T16:09:01.661Z,43.01
2019-04-25T16:11:33.006Z,42.97
2019-04-25T16:14:04.130Z,43.29
2019-04-25T16:16:35.912Z,43.41
2019-04-25T16:19:07.920Z,43.82
2019-04-25T16:21:38.818Z,43.58
2019-04-25T16:24:10.885Z,43.59
2019-04-25T16:26:42.456Z,43.68
2019-04-25T16:29:13.647Z,44.03
2019-04-25T16:31:44.628Z,44.21
2019-04-25T16:34:15.559Z,44.30
2019-04-25T16:36:46.449Z,44.27
2019-04-25T16:39:19.900Z,44.65
2019-04-25T16:41:50.811Z,44.45
2019-04-25T16:44:22.412Z,44.18
2019-04-25T16:46:53.459Z,44.56
2019-04-25T16:49:24.404Z,44.57
2019-04-25T16:51:55.307Z,44.58
2019-04-25T16:54:27.384Z,44.50
2019-04-25T16:56:58.287Z,44.82
2019-04-25T16:59:29.632Z,44.58
2019-04-25T17:02:00.661Z,44.64
2019-04-25T17:04:33.179Z,44.62
2019-04-25T17:07:06.046Z,44.67
2019-04-25T17:09:38.565Z,44.70
2019-04-25T17:12:10.851Z,44.69
2019-04-25T17:14:46.432Z,44.64
2019-04-25T17:17:18.985Z,44.77
2019-04-25T17:19:51.565Z,44.73
2019-04-25T17:22:22.749Z,44.71
2019-04-25T17:24:55.422Z,44.91
2019-04-25T17:27:26.328Z,45.00
2019-04-25T17:29:57.329Z,45.37
2019-04-25T17:32:30.716Z,45.83
2019-04-25T17:35:04.246Z,46.08
2019-04-25T17:37:36.792Z,46.49
2019-04-25T17:40:10.201Z,46.54
2019-04-25T17:42:41.112Z,46.56
2019-04-25T17:45:13.695Z,46.85
2019-04-25T17:47:54.066Z,47.33
2019-04-25T17:50:17.412Z,47.89
2019-04-25T17:52:49.392Z,47.97
2019-04-25T17:55:20.530Z,47.71
2019-04-25T17:57:51.449Z,47.69
2019-04-25T18:00:24.626Z,47.87
2019-04-25T18:02:58.890Z,48.12
2019-04-25T18:05:28.172Z,48.51
2019-04-25T18:07:59.228Z,48.71
2019-04-25T18:10:31.385Z,48.85
2019-04-25T18:13:02.373Z,49.00
2019-04-25T18:15:35.307Z,49.15
2019-04-25T18:18:09.069Z,49.42
2019-04-25T18:20:41.659Z,49.50
2019-04-25T18:23:16.895Z,49.37
2019-04-25T18:25:56.425Z,49.39
2019-04-25T18:28:48.891Z,49.53
2019-04-25T18:31:19.903Z,49.70
2019-04-25T18:33:52.590Z,50.35
2019-04-25T18:36:41.358Z,50.35
2019-04-25T18:39:19.717Z,50.46
2019-04-25T18:42:05.191Z,50.46
2019-04-25T18:44:36.705Z,50.50
2019-04-25T18:47:07.789Z,50.76
2019-04-25T18:49:39.266Z,50.97
2019-04-25T18:52:11.836Z,51.19
2019-04-25T18:54:50.169Z,51.29
2019-04-25T18:57:23.546Z,51.37
2019-04-25T18:59:59.038Z,51.34
2019-04-25T19:02:46.602Z,51.38
2019-04-25T19:05:19.141Z,51.36
2019-04-25T19:07:50.077Z,51.44
2019-04-25T19:10:21.059Z,51.51
2019-04-25T19:12:53.031Z,51.57
2019-04-25T19:15:24.013Z,51.52
2019-04-25T19:17:54.943Z,51.58
2019-04-25T19:20:25.913Z,51.60
2019-04-25T19:22:56.973Z,51.87
2019-04-25T19:25:27.901Z,52.33
2019-04-25T19:28:00.606Z,52.57
2019-04-25T19:30:31.557Z,52.75
2019-04-25T19:33:02.527Z,52.62
2019-04-25T19:35:34.139Z,52.50
2019-04-25T19:38:05.068Z,52.54
2019-04-25T19:40:41.146Z,52.44
2019-04-25T19:43:15.651Z,52.39
2019-04-25T19:45:52.649Z,52.39
2019-04-25T19:48:28.533Z,52.85
2019-04-25T19:50:59.435Z,53.03
2019-04-25T19:53:31.188Z,52.73
2019-04-25T19:56:02.084Z,52.55
2019-04-25T19:58:33.065Z,52.45
2019-04-25T20:01:04.055Z,52.30
2019-04-25T20:03:52.243Z,52.41
2019-04-25T20:06:19.877Z,52.59
2019-04-25T20:08:53.245Z,52.68
2019-04-25T20:11:42.705Z,53.09
2019-04-25T20:14:15.462Z,53.22
2019-04-25T20:16:48.066Z,54.03
2019-04-25T20:19:19.076Z,54.04
2019-04-25T20:21:50.067Z,54.33
2019-04-25T20:24:20.994Z,54.94
2019-04-25T20:26:52.594Z,54.62
2019-04-25T20:29:23.864Z,54.53
2019-04-25T20:31:54.904Z,54.62
2019-04-25T20:34:25.779Z,54.81
2019-04-25T20:36:56.751Z,55.00
2019-04-25T20:39:27.924Z,55.14
2019-04-25T20:41:58.867Z,55.37
2019-04-25T20:44:30.015Z,55.63
2019-04-25T20:47:00.999Z,56.17
2019-04-25T20:49:31.924Z,55.95
2019-04-25T20:52:02.828Z,55.93
2019-04-25T20:54:33.755Z,55.90
2019-04-25T20:57:04.663Z,56.02
2019-04-25T20:59:35.704Z,56.67
2019-04-25T21:02:07.784Z,56.61
2019-04-25T21:04:42.325Z,56.55
2019-04-25T21:07:13.232Z,57.07
2019-04-25T21:09:44.180Z,57.12
2019-04-25T21:12:15.083Z,57.44
2019-04-25T21:14:49.241Z,57.48
2019-04-25T21:17:25.854Z,57.17
2019-04-25T21:19:58.528Z,57.04
2019-04-25T21:22:29.499Z,56.75
2019-04-25T21:25:00.423Z,56.66
2019-04-25T21:27:31.321Z,56.63
2019-04-25T21:30:02.664Z,56.66
2019-04-25T21:32:45.420Z,56.70
2019-04-25T21:35:16.610Z,56.75
2019-04-25T21:37:47.526Z,56.81
2019-04-25T21:40:20.346Z,56.85
2019-04-25T21:42:59.050Z,57.06
2019-04-25T21:45:31.021Z,57.26
2019-04-25T21:48:03.032Z,57.25
2019-04-25T21:50:40.713Z,57.28
2019-04-25T21:53:11.887Z,57.34
2019-04-25T21:55:44.063Z,57.54
2019-04-25T21:58:15.260Z,57.56
2019-04-25T22:00:58.457Z,57.84
2019-04-25T22:03:29.417Z,57.80
2019-04-25T22:06:00.826Z,57.62
2019-04-25T22:08:31.732Z,57.90
2019-04-25T22:11:03.328Z,58.14
2019-04-25T22:13:34.450Z,58.38
2019-04-25T22:16:05.958Z,58.47
2019-04-25T22:18:38.135Z,58.60
2019-04-25T22:24:06.107Z,58.92
2019-04-25T22:26:30.283Z,58.99
2019-04-25T22:29:01.612Z,59.17
2019-04-25T22:31:37.349Z,59.35
2019-04-25T22:34:12.692Z,59.44
2019-04-25T22:36:44.011Z,59.55
2019-04-25T22:39:15.040Z,59.72
2019-04-25T22:41:48.202Z,59.86
2019-04-25T22:44:20.656Z,59.92
2019-04-25T22:46:52.338Z,60.06
2019-04-25T22:49:23.257Z,60.22
2019-04-25T22:51:54.190Z,60.22
2019-04-25T22:54:26.462Z,60.45
2019-04-25T22:56:57.408Z,60.77
2019-04-25T22:59:28.496Z,61.03
2019-04-25T23:02:02.406Z,61.23
2019-04-25T23:04:45.207Z,61.40
2019-04-25T23:07:17.211Z,61.61
2019-04-25T23:09:50.068Z,61.92
2019-04-25T23:12:21.489Z,62.23
2019-04-25T23:14:52.399Z,62.32
2019-04-25T23:17:23.441Z,62.64
2019-04-25T23:19:54.625Z,62.97
2019-04-25T23:22:25.550Z,62.86
2019-04-25T23:24:58.366Z,62.96
2019-04-25T23:27:30.945Z,63.03
2019-04-25T23:30:01.841Z,63.17
2019-04-25T23:32:32.970Z,63.22
2019-04-25T23:35:05.708Z,63.34
2019-04-25T23:37:36.795Z,63.75
2019-04-25T23:40:07.756Z,63.62
2019-04-25T23:42:38.746Z,63.85
2019-04-25T23:45:10.361Z,64.04
2019-04-25T23:47:41.466Z,64.12
2019-04-25T23:50:12.766Z,64.03
2019-04-25T23:52:43.688Z,63.99
2019-04-25T23:55:15.175Z,64.04
2019-04-25T23:57:46.202Z,64.14
